Time;durP1;ratioP1;P1;durP2;ratioP2;P2;SDS_P1;SDS_P2;PMS_P1;PMS_P2;Temp;Humidity;BMP_temperature;BMP_pressure;BME280_temperature;BME280_humidity;BME280_pressure;Samples;Min_cycle;Max_cycle;Signal;HPM_P1;HPM_P2
2021/09/04 00:02:00;;;;;;;;;;;23.60;48.70;;;;;;1515474;77;1120;-69
2021/09/04 00:04:02;;;;;;;;;;;23.60;48.60;;;;;;1526499;76;768;-70
2021/09/04 00:06:04;;;;;;;;;;;23.60;48.50;;;;;;1534576;76;1932;-70
2021/09/04 00:08:06;;;;;;;;;;;23.60;48.40;;;;;;1525323;76;720;-68
2021/09/04 00:10:08;;;;;;;;;;;23.60;48.40;;;;;;1532332;76;698;-68
2021/09/04 00:12:10;;;;;;;;;;;23.60;48.40;;;;;;1529152;76;1135;-67
2021/09/04 00:14:12;;;;;;;;;;;23.60;48.40;;;;;;1536769;76;776;-70
2021/09/04 00:16:14;;;;;;;;;;;23.60;48.30;;;;;;1532907;76;772;-68
2021/09/04 00:18:16;;;;;;;;;;;23.60;48.30;;;;;;1537056;76;699;-67
2021/09/04 00:20:18;;;;;;;;;;;23.50;48.30;;;;;;1539805;76;724;-70
2021/09/04 00:22:20;;;;;;;;;;;23.50;48.20;;;;;;1535717;76;1138;-69
2021/09/04 00:24:22;;;;;;;;;;;23.60;48.20;;;;;;1534728;76;790;-69
2021/09/04 00:26:27;;;;;;;;;;;23.50;48.10;;;;;;1535956;76;1947;-69
2021/09/04 00:28:27;;;;;;;;;;;23.60;48.10;;;;;;1537062;76;1689;-67
2021/09/04 00:30:29;;;;;;;;;;;23.50;48.00;;;;;;1540012;76;735;-68
2021/09/04 00:32:31;;;;;;;;;;;23.60;47.90;;;;;;1531473;76;1224;-69
2021/09/04 00:34:33;;;;;;;;;;;23.50;47.70;;;;;;1544160;76;677;-69
2021/09/04 00:36:35;;;;;;;;;;;23.50;47.70;;;;;;1518079;76;698;-67
2021/09/04 00:38:37;;;;;;;;;;;23.60;47.50;;;;;;1528980;76;713;-69
2021/09/04 00:40:39;;;;;;;;;;;23.50;47.50;;;;;;1535487;76;733;-68
2021/09/04 00:42:40;;;;;;;;;;;23.60;47.50;;;;;;1532511;76;1198;-70
2021/09/04 00:44:42;;;;;;;;;;;23.50;47.50;;;;;;1534871;76;784;-68
2021/09/04 00:46:44;;;;;;;;;;;23.50;47.60;;;;;;1527560;76;1936;-68
2021/09/04 00:48:46;;;;;;;;;;;23.60;47.50;;;;;;1538765;76;709;-69
2021/09/04 00:50:48;;;;;;;;;;;23.60;47.50;;;;;;1520388;76;783;-68
2021/09/04 00:52:50;;;;;;;;;;;23.60;47.40;;;;;;1536997;76;1258;-69
2021/09/04 00:54:52;;;;;;;;;;;23.50;47.40;;;;;;1530788;76;694;-69
2021/09/04 00:56:54;;;;;;;;;;;23.60;47.50;;;;;;1545341;76;794;-69
2021/09/04 00:58:56;;;;;;;;;;;23.50;47.40;;;;;;1547233;76;652;-69
2021/09/04 01:00:58;;;;;;;;;;;23.50;47.40;;;;;;1537300;76;754;-71
2021/09/04 01:03:00;;;;;;;;;;;23.50;47.40;;;;;;1546776;76;1128;-69
2021/09/04 01:05:02;;;;;;;;;;;23.50;47.30;;;;;;1530157;76;711;-70
2021/09/04 01:07:04;;;;;;;;;;;23.60;47.30;;;;;;1518421;76;1935;-68
2021/09/04 01:09:06;;;;;;;;;;;23.50;47.30;;;;;;1533844;77;792;-72
2021/09/04 01:11:08;;;;;;;;;;;23.50;47.30;;;;;;1534921;77;786;-70
2021/09/04 01:13:10;;;;;;;;;;;23.50;47.20;;;;;;1535185;76;1079;-69
2021/09/04 01:15:12;;;;;;;;;;;23.50;47.20;;;;;;1536758;76;800;-70
2021/09/04 01:17:14;;;;;;;;;;;23.50;47.10;;;;;;1537138;76;799;-69
2021/09/04 01:19:16;;;;;;;;;;;23.50;47.10;;;;;;1529257;77;723;-67
2021/09/04 01:21:18;;;;;;;;;;;23.50;47.00;;;;;;1529698;76;681;-68
2021/09/04 01:23:19;;;;;;;;;;;23.50;47.10;;;;;;1538890;76;1126;-69
2021/09/04 01:25:23;;;;;;;;;;;23.50;47.00;;;;;;1541986;76;686;-69
2021/09/04 01:27:25;;;;;;;;;;;23.50;47.00;;;;;;1535651;76;1924;-70
2021/09/04 01:29:27;;;;;;;;;;;23.50;46.90;;;;;;1533886;76;786;-68
2021/09/04 01:31:29;;;;;;;;;;;23.50;46.90;;;;;;1541076;76;725;-69
2021/09/04 01:33:31;;;;;;;;;;;23.50;46.80;;;;;;1533651;76;1114;-68
2021/09/04 01:35:33;;;;;;;;;;;23.40;46.80;;;;;;1537067;76;812;-69
2021/09/04 01:37:35;;;;;;;;;;;23.50;46.80;;;;;;1530417;76;701;-69
2021/09/04 01:39:36;;;;;;;;;;;23.40;46.60;;;;;;1532267;76;776;-67
2021/09/04 01:41:40;;;;;;;;;;;23.50;46.70;;;;;;1540192;76;1131;-69
2021/09/04 01:43:42;;;;;;;;;;;23.40;46.50;;;;;;1535003;73;3104;-67
2021/09/04 01:45:44;;;;;;;;;;;23.50;46.70;;;;;;1582748;73;1943;-68
2021/09/04 01:47:45;;;;;;;;;;;23.50;46.60;;;;;;1589359;73;750;-68
2021/09/04 01:49:47;;;;;;;;;;;23.40;46.40;;;;;;1591898;73;804;-67
2021/09/04 01:51:49;;;;;;;;;;;23.50;46.50;;;;;;1588895;73;684;-68
2021/09/04 01:53:51;;;;;;;;;;;23.40;46.40;;;;;;1584135;74;1147;-67
2021/09/04 01:55:53;;;;;;;;;;;23.50;46.50;;;;;;1598751;73;812;-69
2021/09/04 01:57:55;;;;;;;;;;;23.50;46.50;;;;;;1602349;73;788;-70
2021/09/04 01:59:57;;;;;;;;;;;23.40;46.30;;;;;;1578518;73;801;-68
2021/09/04 02:01:59;;;;;;;;;;;23.40;46.40;;;;;;1593469;73;709;-68
2021/09/04 02:04:00;;;;;;;;;;;23.40;46.30;;;;;;1596544;73;1110;-68
2021/09/04 02:06:04;;;;;;;;;;;23.50;46.40;;;;;;1595880;74;1942;-67
2021/09/04 02:08:06;;;;;;;;;;;23.40;46.30;;;;;;1594801;73;1495;-70
2021/09/04 02:10:08;;;;;;;;;;;23.50;46.50;;;;;;1584998;73;797;-67
2021/09/04 02:12:10;;;;;;;;;;;23.40;46.30;;;;;;1581691;73;1128;-64
2021/09/04 02:14:12;;;;;;;;;;;23.40;46.40;;;;;;1587097;73;705;-70
2021/09/04 02:16:13;;;;;;;;;;;23.50;46.00;;;;;;1588782;73;822;-69
2021/09/04 02:18:15;;;;;;;;;;;23.40;45.70;;;;;;1590682;73;773;-68
2021/09/04 02:20:17;;;;;;;;;;;23.50;45.90;;;;;;1592693;73;777;-69
2021/09/04 02:22:19;;;;;;;;;;;23.40;45.70;;;;;;1600801;73;1100;-69
2021/09/04 02:24:21;;;;;;;;;;;23.40;45.60;;;;;;1589697;73;787;-70
2021/09/04 02:26:23;;;;;;;;;;;23.30;45.70;;;;;;1597482;73;1944;-71
2021/09/04 02:28:25;;;;;;;;;;;23.40;45.70;;;;;;1590314;73;798;-70
2021/09/04 02:30:27;;;;;;;;;;;23.30;45.70;;;;;;1593436;73;836;-68
2021/09/04 02:32:28;;;;;;;;;;;23.30;45.70;;;;;;1594561;73;1119;-69
2021/09/04 02:34:30;;;;;;;;;;;23.30;45.80;;;;;;1597751;73;778;-70
2021/09/04 02:36:32;;;;;;;;;;;23.40;45.70;;;;;;1592326;73;779;-69
2021/09/04 02:38:34;;;;;;;;;;;23.30;45.60;;;;;;1598253;73;791;-70
2021/09/04 02:40:36;;;;;;;;;;;23.30;45.50;;;;;;1587475;73;780;-69
2021/09/04 02:42:38;;;;;;;;;;;23.40;45.40;;;;;;1596689;73;1101;-70
2021/09/04 02:44:40;;;;;;;;;;;23.30;45.50;;;;;;1591764;73;762;-70
2021/09/04 02:46:42;;;;;;;;;;;23.30;45.40;;;;;;1588476;74;1937;-68
2021/09/04 02:48:44;;;;;;;;;;;23.30;45.40;;;;;;1595140;74;807;-68
2021/09/04 02:50:45;;;;;;;;;;;23.30;45.50;;;;;;1584828;73;704;-68
2021/09/04 02:52:47;;;;;;;;;;;23.30;45.50;;;;;;1585653;74;1200;-68
2021/09/04 02:54:49;;;;;;;;;;;23.30;45.50;;;;;;1582914;73;771;-68
2021/09/04 02:56:51;;;;;;;;;;;23.30;45.60;;;;;;1581914;73;796;-71
2021/09/04 02:58:53;;;;;;;;;;;23.30;45.60;;;;;;1587642;74;751;-67
2021/09/04 03:00:55;;;;;;;;;;;23.30;45.70;;;;;;1591577;73;712;-67
2021/09/04 03:02:57;;;;;;;;;;;23.30;45.50;;;;;;1586106;73;1183;-67
2021/09/04 03:04:58;;;;;;;;;;;23.30;45.40;;;;;;1587305;73;789;-67
2021/09/04 03:07:00;;;;;;;;;;;23.40;45.50;;;;;;1582025;73;1947;-69
2021/09/04 03:09:02;;;;;;;;;;;23.30;45.20;;;;;;1591032;73;697;-68
2021/09/04 03:11:05;;;;;;;;;;;23.30;45.40;;;;;;1578922;73;722;-67
2021/09/04 03:13:07;;;;;;;;;;;23.30;45.50;;;;;;1585381;73;1095;-67
2021/09/04 03:15:09;;;;;;;;;;;23.30;45.40;;;;;;1586725;73;846;-64
2021/09/04 03:17:11;;;;;;;;;;;23.40;45.30;;;;;;1595640;73;736;-70
2021/09/04 03:19:13;;;;;;;;;;;23.30;45.30;;;;;;1579921;74;679;-69
2021/09/04 03:21:14;;;;;;;;;;;23.30;45.60;;;;;;1577728;73;763;-71
2021/09/04 03:23:16;;;;;;;;;;;23.30;45.50;;;;;;1578114;73;1140;-68
2021/09/04 03:25:18;;;;;;;;;;;23.30;45.60;;;;;;1581096;74;715;-70
2021/09/04 03:27:20;;;;;;;;;;;23.30;45.60;;;;;;1580832;73;1947;-70
2021/09/04 03:29:22;;;;;;;;;;;23.30;45.70;;;;;;1595467;74;787;-67
2021/09/04 03:31:24;;;;;;;;;;;23.30;45.70;;;;;;1579889;73;794;-68
2021/09/04 03:33:26;;;;;;;;;;;23.30;45.70;;;;;;1579391;73;1167;-68
2021/09/04 03:35:27;;;;;;;;;;;23.30;46.00;;;;;;1580506;73;731;-69
2021/09/04 03:37:29;;;;;;;;;;;23.30;45.50;;;;;;1576178;73;794;-70
2021/09/04 03:39:31;;;;;;;;;;;23.30;45.30;;;;;;1580965;73;748;-69
2021/09/04 03:41:33;;;;;;;;;;;23.30;45.20;;;;;;1581946;73;720;-68
2021/09/04 03:43:36;;;;;;;;;;;23.30;45.30;;;;;;1580892;73;1147;-67
2021/09/04 03:45:37;;;;;;;;;;;23.30;45.40;;;;;;1573005;73;736;-65
2021/09/04 03:47:39;;;;;;;;;;;23.30;45.30;;;;;;1585897;73;1933;-67
2021/09/04 03:49:41;;;;;;;;;;;23.40;45.40;;;;;;1580490;73;868;-68
2021/09/04 03:51:43;;;;;;;;;;;23.30;45.40;;;;;;1577781;73;785;-69
2021/09/04 03:53:45;;;;;;;;;;;23.30;45.40;;;;;;1582718;73;1053;-69
2021/09/04 03:55:47;;;;;;;;;;;23.30;45.40;;;;;;1576695;74;873;-68
2021/09/04 03:57:49;;;;;;;;;;;23.30;45.40;;;;;;1573249;73;751;-69
2021/09/04 03:59:51;;;;;;;;;;;23.30;45.20;;;;;;1580732;73;818;-68
2021/09/04 04:01:52;;;;;;;;;;;23.30;45.20;;;;;;1574175;73;759;-71
2021/09/04 04:03:54;;;;;;;;;;;23.30;45.20;;;;;;1579809;74;1133;-69
2021/09/04 04:05:56;;;;;;;;;;;23.30;45.30;;;;;;1575541;73;772;-68
2021/09/04 04:07:58;;;;;;;;;;;23.20;45.20;;;;;;1578923;73;1946;-68
2021/09/04 04:10:00;;;;;;;;;;;23.30;45.20;;;;;;1583013;73;750;-69
2021/09/04 04:12:02;;;;;;;;;;;23.40;45.20;;;;;;1579907;73;712;-69
2021/09/04 04:14:04;;;;;;;;;;;23.30;45.20;;;;;;1575919;73;1169;-70
2021/09/04 04:16:06;;;;;;;;;;;23.30;45.10;;;;;;1579911;73;773;-68
2021/09/04 04:18:08;;;;;;;;;;;23.30;45.20;;;;;;1585615;73;777;-71
2021/09/04 04:20:10;;;;;;;;;;;23.30;45.20;;;;;;1579546;73;722;-68
2021/09/04 04:22:12;;;;;;;;;;;23.30;45.20;;;;;;1577887;73;1150;-67
2021/09/04 04:24:14;;;;;;;;;;;23.20;45.30;;;;;;1578962;73;805;-68
2021/09/04 04:26:16;;;;;;;;;;;23.30;45.30;;;;;;1576484;73;730;-70
2021/09/04 04:28:18;;;;;;;;;;;23.30;45.20;;;;;;1578796;73;1946;-69
2021/09/04 04:30:19;;;;;;;;;;;23.40;45.20;;;;;;1579554;73;733;-69
2021/09/04 04:32:21;;;;;;;;;;;23.30;45.20;;;;;;1577647;74;1147;-68
2021/09/04 04:34:23;;;;;;;;;;;23.30;45.20;;;;;;1583239;73;809;-69
2021/09/04 04:36:25;;;;;;;;;;;23.20;45.10;;;;;;1578885;73;762;-72
2021/09/04 04:38:27;;;;;;;;;;;23.30;45.10;;;;;;1576145;74;785;-66
2021/09/04 04:40:29;;;;;;;;;;;23.30;45.40;;;;;;1581846;74;759;-65
2021/09/04 04:42:31;;;;;;;;;;;23.20;45.40;;;;;;1579787;73;1151;-65
2021/09/04 04:44:32;;;;;;;;;;;23.20;45.60;;;;;;1581091;73;761;-66
2021/09/04 04:46:34;;;;;;;;;;;23.30;45.70;;;;;;1580339;73;792;-67
2021/09/04 04:48:38;;;;;;;;;;;23.20;45.60;;;;;;1579555;73;1934;-65
2021/09/04 04:50:39;;;;;;;;;;;23.30;45.70;;;;;;1574760;73;811;-66
2021/09/04 04:52:41;;;;;;;;;;;23.30;45.50;;;;;;1578630;73;1147;-66
2021/09/04 04:54:43;;;;;;;;;;;23.30;45.50;;;;;;1584688;73;777;-66
2021/09/04 04:56:45;;;;;;;;;;;23.30;45.60;;;;;;1572587;74;775;-66
2021/09/04 04:58:47;;;;;;;;;;;23.20;45.50;;;;;;1578127;74;890;-65
2021/09/04 05:00:51;;;;;;;;;;;23.20;45.50;;;;;;1583125;73;735;-69
2021/09/04 05:02:53;;;;;;;;;;;23.30;45.50;;;;;;1587808;73;1188;-72
2021/09/04 05:04:54;;;;;;;;;;;23.20;45.50;;;;;;1594211;73;715;-69
2021/09/04 05:06:56;;;;;;;;;;;23.20;45.60;;;;;;1593341;73;1933;-69
2021/09/04 05:08:58;;;;;;;;;;;23.30;45.70;;;;;;1596011;73;808;-69
2021/09/04 05:11:00;;;;;;;;;;;23.30;45.80;;;;;;1596112;73;773;-70
2021/09/04 05:13:02;;;;;;;;;;;23.20;45.70;;;;;;1594533;73;1149;-67
2021/09/04 05:15:04;;;;;;;;;;;23.20;45.70;;;;;;1591157;73;789;-70
2021/09/04 05:17:06;;;;;;;;;;;23.20;45.50;;;;;;1592585;73;929;-69
2021/09/04 05:19:08;;;;;;;;;;;23.30;45.80;;;;;;1595939;73;756;-69
2021/09/04 05:21:10;;;;;;;;;;;23.30;45.90;;;;;;1594371;73;839;-69
2021/09/04 05:23:12;;;;;;;;;;;23.30;46.00;;;;;;1593580;73;1149;-70
2021/09/04 05:25:17;;;;;;;;;;;23.20;45.80;;;;;;1596976;73;751;-69
2021/09/04 05:27:19;;;;;;;;;;;23.30;46.20;;;;;;1592315;73;1933;-70
2021/09/04 05:29:21;;;;;;;;;;;23.30;45.90;;;;;;1596105;73;756;-73
2021/09/04 05:31:22;;;;;;;;;;;23.40;46.20;;;;;;1593532;73;712;-72
2021/09/04 05:33:24;;;;;;;;;;;23.50;46.40;;;;;;1591336;73;1138;-71
2021/09/04 05:35:26;;;;;;;;;;;23.30;46.40;;;;;;1591228;73;767;-71
2021/09/04 05:37:28;;;;;;;;;;;23.40;46.30;;;;;;1596864;73;793;-70
2021/09/04 05:39:30;;;;;;;;;;;23.40;46.10;;;;;;1595739;73;786;-71
2021/09/04 05:41:32;;;;;;;;;;;23.30;46.20;;;;;;1595834;73;800;-72
2021/09/04 05:43:34;;;;;;;;;;;23.40;46.20;;;;;;1596007;73;1130;-76
2021/09/04 05:45:35;;;;;;;;;;;23.40;46.20;;;;;;1582650;73;795;-71
2021/09/04 05:47:37;;;;;;;;;;;23.40;46.20;;;;;;1594498;73;1929;-72
2021/09/04 05:49:39;;;;;;;;;;;23.50;46.80;;;;;;1597190;73;806;-69
2021/09/04 05:51:41;;;;;;;;;;;23.50;46.50;;;;;;1585512;73;756;-68
2021/09/04 05:53:43;;;;;;;;;;;23.50;46.30;;;;;;1582376;73;1125;-65
2021/09/04 05:55:45;;;;;;;;;;;23.50;46.40;;;;;;1589000;73;782;-68
2021/09/04 05:57:47;;;;;;;;;;;23.50;46.40;;;;;;1578857;73;831;-65
2021/09/04 05:59:50;;;;;;;;;;;23.50;46.50;;;;;;1595365;73;844;-69
2021/09/04 06:01:52;;;;;;;;;;;23.50;46.60;;;;;;1591528;74;843;-68
2021/09/04 06:03:54;;;;;;;;;;;23.50;46.70;;;;;;1580126;73;1117;-68
2021/09/04 06:05:57;;;;;;;;;;;23.40;46.70;;;;;;1585236;73;737;-69
2021/09/04 06:07:59;;;;;;;;;;;23.40;46.80;;;;;;1594019;73;1912;-69
2021/09/04 06:10:01;;;;;;;;;;;23.40;46.90;;;;;;1600898;73;817;-68
2021/09/04 06:12:02;;;;;;;;;;;23.40;47.00;;;;;;1585432;73;946;-68
2021/09/04 06:14:05;;;;;;;;;;;23.50;47.30;;;;;;1588020;73;1147;-67
2021/09/04 06:16:07;;;;;;;;;;;23.50;47.70;;;;;;1589669;73;815;-67
2021/09/04 06:18:09;;;;;;;;;;;23.50;48.00;;;;;;1593999;73;690;-66
2021/09/04 06:20:11;;;;;;;;;;;23.60;48.70;;;;;;1594376;73;782;-65
2021/09/04 06:22:13;;;;;;;;;;;23.60;49.20;;;;;;1595554;73;1137;-67
2021/09/04 06:24:15;;;;;;;;;;;23.70;49.30;;;;;;1596073;73;694;-69
2021/09/04 06:26:17;;;;;;;;;;;23.70;49.60;;;;;;1596285;73;663;-65
2021/09/04 06:28:19;;;;;;;;;;;23.70;49.40;;;;;;1595145;73;1953;-65
2021/09/04 06:30:21;;;;;;;;;;;23.80;49.40;;;;;;1597281;73;717;-66
2021/09/04 06:32:25;;;;;;;;;;;23.80;49.30;;;;;;1595025;73;1153;-66
2021/09/04 06:34:26;;;;;;;;;;;23.80;49.20;;;;;;1592210;73;1669;-66
2021/09/04 06:36:28;;;;;;;;;;;23.80;49.30;;;;;;1594469;73;788;-65
2021/09/04 06:38:30;;;;;;;;;;;23.80;49.30;;;;;;1592305;74;802;-64
2021/09/04 06:40:32;;;;;;;;;;;23.90;49.10;;;;;;1593421;73;780;-64
2021/09/04 06:42:33;;;;;;;;;;;23.90;49.00;;;;;;1592733;73;1130;-64
2021/09/04 06:44:35;;;;;;;;;;;23.90;49.00;;;;;;1597734;73;718;-68
2021/09/04 06:46:37;;;;;;;;;;;23.90;49.10;;;;;;1585012;73;763;-70
2021/09/04 06:48:39;;;;;;;;;;;24.00;49.20;;;;;;1592154;74;1937;-68
2021/09/04 06:50:41;;;;;;;;;;;23.90;49.50;;;;;;1593617;74;767;-68
2021/09/04 06:52:43;;;;;;;;;;;23.90;49.30;;;;;;1593248;73;1138;-67
2021/09/04 06:54:45;;;;;;;;;;;23.80;48.90;;;;;;1596526;73;776;-68
2021/09/04 06:56:47;;;;;;;;;;;23.90;48.90;;;;;;1594627;73;729;-68
2021/09/04 06:58:48;;;;;;;;;;;23.90;48.70;;;;;;1591142;73;724;-68
2021/09/04 07:00:50;;;;;;;;;;;23.70;48.50;;;;;;1590897;74;753;-70
2021/09/04 07:02:52;;;;;;;;;;;23.80;48.90;;;;;;1595839;73;1147;-76
2021/09/04 07:04:54;;;;;;;;;;;23.80;48.70;;;;;;1584769;74;813;-71
2021/09/04 07:06:56;;;;;;;;;;;23.80;48.60;;;;;;1582452;73;798;-68
2021/09/04 07:08:58;;;;;;;;;;;23.80;48.60;;;;;;1595107;73;1945;-70
2021/09/04 07:11:00;;;;;;;;;;;23.80;48.60;;;;;;1596177;73;711;-70
2021/09/04 07:13:02;;;;;;;;;;;23.80;48.50;;;;;;1584921;73;1137;-73
2021/09/04 07:15:04;;;;;;;;;;;23.70;48.50;;;;;;1595561;73;758;-71
2021/09/04 07:17:06;;;;;;;;;;;23.70;48.40;;;;;;1589600;73;951;-70
2021/09/04 07:19:07;;;;;;;;;;;23.70;48.40;;;;;;1597068;73;654;-70
2021/09/04 07:21:09;;;;;;;;;;;23.80;48.40;;;;;;1596886;73;781;-71
2021/09/04 07:23:11;;;;;;;;;;;23.70;48.50;;;;;;1595924;73;1134;-70
2021/09/04 07:25:13;;;;;;;;;;;23.70;48.60;;;;;;1595732;73;810;-70
2021/09/04 07:27:15;;;;;;;;;;;23.60;48.40;;;;;;1591490;73;667;-72
2021/09/04 07:29:17;;;;;;;;;;;23.60;48.50;;;;;;1591007;73;1926;-73
2021/09/04 07:31:19;;;;;;;;;;;23.70;48.60;;;;;;1597943;73;785;-73
2021/09/04 07:33:20;;;;;;;;;;;23.70;48.60;;;;;;1589668;73;1119;-70
2021/09/04 07:35:22;;;;;;;;;;;23.60;48.40;;;;;;1590810;73;758;-70
2021/09/04 07:37:24;;;;;;;;;;;23.60;48.50;;;;;;1594098;73;814;-72
2021/09/04 07:39:26;;;;;;;;;;;23.60;48.60;;;;;;1592551;73;766;-70
2021/09/04 07:41:28;;;;;;;;;;;23.60;48.60;;;;;;1596005;73;774;-69
2021/09/04 07:43:30;;;;;;;;;;;23.60;48.60;;;;;;1564430;71;220427;-59
2021/09/04 07:45:32;;;;;;;;;;;23.60;48.60;;;;;;1535673;76;737;-60
2021/09/04 07:47:34;;;;;;;;;;;23.70;48.70;;;;;;1550220;75;774;-58
2021/09/04 07:49:36;;;;;;;;;;;23.60;48.60;;;;;;1563322;75;2241;-59
2021/09/04 07:51:37;;;;;;;;;;;23.60;48.60;;;;;;1565646;75;686;-59
2021/09/04 07:53:39;;;;;;;;;;;23.60;48.60;;;;;;1552296;75;1141;-59
2021/09/04 07:55:41;;;;;;;;;;;23.70;48.80;;;;;;1527378;76;720;-59
2021/09/04 07:57:43;;;;;;;;;;;23.70;48.80;;;;;;1534384;76;800;-59
2021/09/04 07:59:45;;;;;;;;;;;23.70;48.70;;;;;;1540799;76;708;-58
2021/09/04 08:01:47;;;;;;;;;;;23.70;48.60;;;;;;1538508;76;773;-59
2021/09/04 08:03:49;;;;;;;;;;;23.80;48.60;;;;;;1536814;76;1148;-59
2021/09/04 08:05:50;;;;;;;;;;;23.80;48.60;;;;;;1538999;76;709;-59
2021/09/04 08:07:52;;;;;;;;;;;23.80;48.40;;;;;;1532413;76;1028;-59
2021/09/04 08:09:55;;;;;;;;;;;23.80;48.40;;;;;;1536902;76;1919;-59
2021/09/04 08:11:56;;;;;;;;;;;23.90;48.40;;;;;;1535676;76;798;-59
2021/09/04 08:13:58;;;;;;;;;;;23.90;48.30;;;;;;1538522;76;1138;-59
2021/09/04 08:16:00;;;;;;;;;;;23.90;48.30;;;;;;1533424;76;766;-59
2021/09/04 08:18:02;;;;;;;;;;;23.80;48.40;;;;;;1533312;76;710;-59
2021/09/04 08:20:04;;;;;;;;;;;23.80;48.40;;;;;;1537423;76;694;-59
2021/09/04 08:22:06;;;;;;;;;;;23.90;48.40;;;;;;1533660;76;774;-58
2021/09/04 08:24:08;;;;;;;;;;;23.90;48.40;;;;;;1537440;76;1110;-58
2021/09/04 08:26:10;;;;;;;;;;;23.90;48.40;;;;;;1539097;76;849;-59
2021/09/04 08:28:12;;;;;;;;;;;23.90;48.30;;;;;;1534315;76;1939;-58
2021/09/04 08:30:14;;;;;;;;;;;23.90;48.30;;;;;;1531200;76;726;-58
2021/09/04 08:32:16;;;;;;;;;;;23.90;48.20;;;;;;1535498;76;733;-58
2021/09/04 08:34:18;;;;;;;;;;;24.00;48.10;;;;;;1534548;76;1128;-59
2021/09/04 08:36:20;;;;;;;;;;;23.90;48.20;;;;;;1532074;76;746;-58
2021/09/04 08:38:22;;;;;;;;;;;23.90;48.30;;;;;;1539748;75;804;-59
2021/09/04 08:40:24;;;;;;;;;;;24.00;48.20;;;;;;1539197;76;816;-59
2021/09/04 08:42:25;;;;;;;;;;;24.10;48.20;;;;;;1524965;76;789;-59
2021/09/04 08:44:27;;;;;;;;;;;24.00;48.10;;;;;;1535069;76;1114;-59
2021/09/04 08:46:31;;;;;;;;;;;24.00;48.20;;;;;;1537283;76;790;-58
2021/09/04 08:48:33;;;;;;;;;;;24.00;48.10;;;;;;1536711;76;1932;-59
2021/09/04 08:50:36;;;;;;;;;;;24.00;48.10;;;;;;1518612;76;734;-58
2021/09/04 08:52:38;;;;;;;;;;;24.10;48.20;;;;;;1536889;76;727;-59
2021/09/04 08:54:39;;;;;;;;;;;24.10;48.10;;;;;;1537103;76;1116;-59
2021/09/04 08:56:42;;;;;;;;;;;24.10;48.00;;;;;;1536702;76;737;-59
2021/09/04 08:58:43;;;;;;;;;;;24.10;47.90;;;;;;1532588;76;738;-58
2021/09/04 09:00:47;;;;;;;;;;;24.20;47.80;;;;;;1537581;76;708;-59
2021/09/04 09:02:48;;;;;;;;;;;24.10;47.90;;;;;;1537035;76;1144;-59
2021/09/04 09:04:52;;;;;;;;;;;24.10;48.10;;;;;;1535878;76;691;-59
2021/09/04 09:06:54;;;;;;;;;;;24.00;48.10;;;;;;1535297;76;1115;-58
2021/09/04 09:08:56;;;;;;;;;;;24.00;48.10;;;;;;1538983;76;1944;-59
2021/09/04 09:11:00;;;;;;;;;;;24.20;48.10;;;;;;1536800;76;728;-59
2021/09/04 09:13:02;;;;;;;;;;;24.20;48.10;;;;;;1527079;76;1151;-59
2021/09/04 09:15:05;;;;;;;;;;;24.20;48.00;;;;;;1536887;76;736;-58
2021/09/04 09:17:07;;;;;;;;;;;24.20;47.90;;;;;;1534306;76;756;-59
2021/09/04 09:19:08;;;;;;;;;;;24.10;48.10;;;;;;1540577;76;675;-59
2021/09/04 09:21:10;;;;;;;;;;;24.10;48.20;;;;;;1539660;76;780;-59
2021/09/04 09:23:14;;;;;;;;;;;24.10;48.20;;;;;;1518169;76;1386;-58
2021/09/04 09:25:16;;;;;;;;;;;24.20;48.10;;;;;;1531829;76;733;-58
2021/09/04 09:27:18;;;;;;;;;;;24.20;48.10;;;;;;1522130;76;777;-58
2021/09/04 09:29:22;;;;;;;;;;;24.20;48.10;;;;;;1522476;76;1911;-59
2021/09/04 09:31:25;;;;;;;;;;;24.20;48.10;;;;;;1526324;76;982;-59
2021/09/04 09:33:28;;;;;;;;;;;24.20;48.20;;;;;;1523407;76;1929;-59
2021/09/04 09:35:30;;;;;;;;;;;24.10;48.20;;;;;;1521458;76;706;-59
2021/09/04 09:37:32;;;;;;;;;;;24.20;48.20;;;;;;1491822;78;712;-58
2021/09/04 09:39:37;;;;;;;;;;;24.20;48.20;;;;;;1480373;79;1361;-58
2021/09/04 09:41:47;;;;;;;;;;;24.20;48.20;;;;;;1522579;76;718;-58
2021/09/04 09:43:49;;;;;;;;;;;24.10;48.30;;;;;;1519131;76;1776;-58
2021/09/04 09:45:51;;;;;;;;;;;24.20;48.30;;;;;;1525186;76;796;-59
2021/09/04 09:47:53;;;;;;;;;;;24.20;48.40;;;;;;1527381;76;752;-58
2021/09/04 09:49:55;;;;;;;;;;;24.20;48.30;;;;;;1523580;76;1944;-59
2021/09/04 09:51:58;;;;;;;;;;;24.20;48.30;;;;;;1523537;76;644;-60
2021/09/04 09:54:00;;;;;;;;;;;24.20;48.20;;;;;;1516206;77;1123;-60
2021/09/04 09:56:02;;;;;;;;;;;24.10;48.20;;;;;;1525094;76;778;-59
2021/09/04 09:58:05;;;;;;;;;;;24.20;48.20;;;;;;1495564;78;727;-60
2021/09/04 10:00:07;;;;;;;;;;;24.20;48.30;;;;;;1500179;78;730;-59
2021/09/04 10:02:10;;;;;;;;;;;24.10;48.30;;;;;;1497488;78;685;-59
2021/09/04 10:04:12;;;;;;;;;;;24.10;48.40;;;;;;1487450;78;1153;-59
2021/09/04 10:06:14;;;;;;;;;;;24.20;48.40;;;;;;1524025;76;669;-59
2021/09/04 10:08:16;;;;;;;;;;;24.10;48.40;;;;;;1522298;76;782;-59
2021/09/04 10:10:18;;;;;;;;;;;24.00;48.40;;;;;;1528376;76;1943;-59
2021/09/04 10:12:21;;;;;;;;;;;24.00;48.50;;;;;;1534294;76;722;-59
2021/09/04 10:14:23;;;;;;;;;;;24.00;48.60;;;;;;1525728;76;1127;-59
2021/09/04 10:16:25;;;;;;;;;;;24.00;48.70;;;;;;1528218;76;782;-59
2021/09/04 10:18:27;;;;;;;;;;;24.00;48.70;;;;;;1523812;76;721;-59
2021/09/04 10:20:30;;;;;;;;;;;24.00;48.70;;;;;;1525917;76;703;-58
2021/09/04 10:22:31;;;;;;;;;;;24.00;48.60;;;;;;1522197;76;589;-59
2021/09/04 10:24:44;;;;;;;;;;;24.00;48.60;;;;;;1519561;76;1107;-59
2021/09/04 10:26:46;;;;;;;;;;;24.00;48.60;;;;;;1523949;76;716;-59
2021/09/04 10:28:58;;;;;;;;;;;24.00;48.60;;;;;;1518176;76;739;-60
2021/09/04 10:31:00;;;;;;;;;;;24.00;48.70;;;;;;1524185;76;898;-59
2021/09/04 10:33:04;;;;;;;;;;;24.00;48.60;;;;;;1519245;76;1131;-60
2021/09/04 10:35:06;;;;;;;;;;;23.90;48.60;;;;;;1525486;76;699;-59
2021/09/04 10:37:08;;;;;;;;;;;24.00;48.60;;;;;;1529979;76;718;-58
2021/09/04 10:39:10;;;;;;;;;;;23.90;48.70;;;;;;1524014;76;689;-59
2021/09/04 10:41:16;;;;;;;;;;;23.90;48.70;;;;;;1522832;76;673;-58
2021/09/04 10:43:19;;;;;;;;;;;24.00;48.70;;;;;;1526988;76;1142;-58
2021/09/04 10:45:21;;;;;;;;;;;24.00;48.60;;;;;;1521260;76;781;-59
2021/09/04 10:47:23;;;;;;;;;;;24.00;48.60;;;;;;1501611;77;795;-59
2021/09/04 10:49:41;;;;;;;;;;;24.00;48.60;;;;;;1528551;76;1937;-59
2021/09/04 10:51:46;;;;;;;;;;;24.00;48.60;;;;;;1521009;76;806;-58
2021/09/04 10:53:49;;;;;;;;;;;24.00;48.60;;;;;;1526316;76;1151;-58
2021/09/04 10:55:53;;;;;;;;;;;24.00;48.60;;;;;;1528693;76;1060;-59
2021/09/04 10:57:56;;;;;;;;;;;24.00;48.60;;;;;;1524319;76;800;-59
2021/09/04 11:00:00;;;;;;;;;;;24.00;48.60;;;;;;1520747;76;1694;-59
2021/09/04 11:02:02;;;;;;;;;;;24.00;48.60;;;;;;1522736;76;774;-59
2021/09/04 11:04:04;;;;;;;;;;;24.00;48.60;;;;;;1524509;76;1119;-59
2021/09/04 11:06:07;;;;;;;;;;;24.00;48.60;;;;;;1522590;76;717;-59
2021/09/04 11:08:12;;;;;;;;;;;24.00;48.60;;;;;;1511689;77;718;-59
2021/09/04 11:10:23;;;;;;;;;;;24.00;48.70;;;;;;1527091;76;1932;-59
2021/09/04 11:12:25;;;;;;;;;;;23.90;48.80;;;;;;1521314;76;732;-59
2021/09/04 11:14:28;;;;;;;;;;;23.90;48.80;;;;;;1533895;75;1124;-59
2021/09/04 11:16:31;;;;;;;;;;;23.90;48.80;;;;;;1523058;75;678;-59
2021/09/04 11:18:35;;;;;;;;;;;23.90;48.80;;;;;;1526489;76;709;-59
2021/09/04 11:20:43;;;;;;;;;;;23.90;48.70;;;;;;1523381;76;1051;-59
2021/09/04 11:22:45;;;;;;;;;;;24.00;48.60;;;;;;1530630;76;734;-59
2021/09/04 11:24:47;;;;;;;;;;;24.00;48.60;;;;;;1538363;76;676;-58
2021/09/04 11:26:53;;;;;;;;;;;24.00;48.60;;;;;;1542455;75;790;-58
2021/09/04 11:28:57;;;;;;;;;;;23.90;48.60;;;;;;1531598;76;820;-58
2021/09/04 11:30:58;;;;;;;;;;;24.00;48.60;;;;;;1544342;76;1929;-59
2021/09/04 11:33:13;;;;;;;;;;;24.10;48.70;;;;;;1535353;76;1144;-59
2021/09/04 11:35:16;;;;;;;;;;;24.00;48.60;;;;;;1535337;76;752;-58
2021/09/04 11:37:19;;;;;;;;;;;24.00;48.50;;;;;;1540736;76;687;-59
2021/09/04 11:39:21;;;;;;;;;;;24.00;48.50;;;;;;1531742;76;713;-58
2021/09/04 11:41:23;;;;;;;;;;;24.00;48.60;;;;;;1535876;76;745;-59
2021/09/04 11:43:25;;;;;;;;;;;24.00;48.50;;;;;;1534946;76;1130;-59
2021/09/04 11:45:27;;;;;;;;;;;24.00;48.40;;;;;;1534233;76;985;-58
2021/09/04 11:47:29;;;;;;;;;;;24.10;48.40;;;;;;1509456;77;1262;-59
2021/09/04 11:49:32;;;;;;;;;;;24.10;48.30;;;;;;1524954;76;1932;-58
2021/09/04 11:51:34;;;;;;;;;;;24.10;48.10;;;;;;1533194;76;1546;-58
2021/09/04 11:53:36;;;;;;;;;;;24.10;48.20;;;;;;1538295;76;1158;-58
2021/09/04 11:55:38;;;;;;;;;;;24.10;48.00;;;;;;1534873;76;721;-58
2021/09/04 11:57:43;;;;;;;;;;;24.20;47.70;;;;;;1540754;76;738;-59
2021/09/04 12:00:01;;;;;;;;;;;24.20;47.60;;;;;;1532648;76;751;-58
2021/09/04 12:02:04;;;;;;;;;;;24.20;47.30;;;;;;1535594;76;752;-58
2021/09/04 12:04:06;;;;;;;;;;;24.10;47.40;;;;;;1536939;76;1146;-58
2021/09/04 12:06:08;;;;;;;;;;;24.10;46.60;;;;;;1533663;76;720;-58
2021/09/04 12:08:11;;;;;;;;;;;24.00;47.10;;;;;;1537739;76;659;-58
2021/09/04 12:10:13;;;;;;;;;;;24.10;47.00;;;;;;1531799;76;1930;-59